createdAt,value
2023-03-27T00:01:26.962Z,6.04
2023-03-27T00:03:55.917Z,6.16
2023-03-27T00:06:25.225Z,6.03
2023-03-27T00:08:52.795Z,6.13
2023-03-27T00:11:21.993Z,6.20
2023-03-27T00:13:54.790Z,6.12
2023-03-27T00:16:25.569Z,6.12
2023-03-27T00:18:53.519Z,6.11
2023-03-27T00:21:22.629Z,6.08
2023-03-27T00:23:50.587Z,6.19
2023-03-27T00:26:18.122Z,6.31
2023-03-27T00:28:45.505Z,6.38
2023-03-27T00:31:16.263Z,6.20
2023-03-27T00:33:43.704Z,6.33
2023-03-27T00:36:11.511Z,6.23
2023-03-27T00:38:40.058Z,6.40
2023-03-27T00:41:09.053Z,5.70
2023-03-27T00:43:41.285Z,5.69
2023-03-27T00:46:14.912Z,5.93
2023-03-27T00:48:47.397Z,6.06
2023-03-27T00:51:16.686Z,6.08
2023-03-27T00:53:44.663Z,6.05
2023-03-27T00:56:13.182Z,6.21
2023-03-27T00:58:45.020Z,5.73
2023-03-27T01:01:15.061Z,5.76
2023-03-27T01:03:45.642Z,6.03
2023-03-27T01:06:17.162Z,5.93
2023-03-27T01:08:46.894Z,6.10
2023-03-27T01:11:46.668Z,5.94
2023-03-27T01:14:20.557Z,5.86
2023-03-27T01:17:00.178Z,5.87
2023-03-27T01:19:46.547Z,5.81
2023-03-27T01:22:44.185Z,5.72
2023-03-27T01:25:42.470Z,5.78
2023-03-27T01:28:38.977Z,5.55
2023-03-27T01:31:50.251Z,5.70
2023-03-27T01:34:28.524Z,5.51
2023-03-27T01:37:33.877Z,5.80
2023-03-27T01:40:13.150Z,5.86
2023-03-27T01:43:06.101Z,5.85
2023-03-27T01:45:44.911Z,6.00
2023-03-27T01:48:18.565Z,5.71
2023-03-27T01:50:50.953Z,5.75
2023-03-27T01:53:27.513Z,5.93
2023-03-27T01:56:10.817Z,5.72
2023-03-27T01:58:46.556Z,5.62
2023-03-27T02:01:22.465Z,5.43
2023-03-27T02:03:57.548Z,5.64
2023-03-27T02:06:33.587Z,5.48
2023-03-27T02:09:24.806Z,5.12
2023-03-27T02:12:03.142Z,5.28
2023-03-27T02:14:37.804Z,5.43
2023-03-27T02:17:12.965Z,5.67
2023-03-27T02:19:54.600Z,5.54
2023-03-27T02:22:37.626Z,5.50
2023-03-27T02:25:22.542Z,5.52
2023-03-27T02:27:58.962Z,5.54
2023-03-27T02:30:35.792Z,5.46
2023-03-27T02:33:18.157Z,5.51
2023-03-27T02:35:57.255Z,5.56
2023-03-27T02:39:02.571Z,5.64
2023-03-27T02:41:33.979Z,5.71
2023-03-27T02:44:19.408Z,5.77
2023-03-27T02:47:04.871Z,5.71
2023-03-27T02:49:38.949Z,5.68
2023-03-27T02:52:12.488Z,5.45
2023-03-27T02:54:46.985Z,5.39
2023-03-27T02:57:21.180Z,5.30
2023-03-27T02:59:56.490Z,5.52
2023-03-27T03:02:30.044Z,5.25
2023-03-27T03:05:11.251Z,5.27
2023-03-27T03:07:40.352Z,5.20
2023-03-27T03:10:12.508Z,5.20
2023-03-27T03:12:40.398Z,5.14
2023-03-27T03:15:08.504Z,5.00
2023-03-27T03:17:36.653Z,5.09
2023-03-27T03:20:09.517Z,5.15
2023-03-27T03:22:40.107Z,4.99
2023-03-27T03:25:08.904Z,4.90
2023-03-27T03:27:37.083Z,4.97
2023-03-27T03:30:06.075Z,5.04
2023-03-27T03:32:35.702Z,5.12
2023-03-27T03:35:06.749Z,4.99
2023-03-27T03:37:39.009Z,4.92
2023-03-27T03:40:12.170Z,4.83
2023-03-27T03:42:51.604Z,4.75
2023-03-27T03:45:20.137Z,4.88
2023-03-27T03:47:47.805Z,5.06
2023-03-27T03:50:15.414Z,5.22
2023-03-27T03:52:45.825Z,5.00
2023-03-27T03:55:13.840Z,4.95
2023-03-27T03:57:47.244Z,4.75
2023-03-27T04:00:17.168Z,4.61
2023-03-27T04:02:45.542Z,4.76
2023-03-27T04:05:13.521Z,4.48
2023-03-27T04:07:41.365Z,4.60
2023-03-27T04:10:12.024Z,4.57
2023-03-27T04:12:39.980Z,4.80
2023-03-27T04:15:08.931Z,4.76
2023-03-27T04:17:38.606Z,4.64
2023-03-27T04:20:10.121Z,4.61
2023-03-27T04:22:38.253Z,4.70
2023-03-27T04:25:07.933Z,4.80
2023-03-27T04:27:35.890Z,4.84
2023-03-27T04:30:14.230Z,4.72
2023-03-27T04:32:45.641Z,4.88
2023-03-27T04:35:27.445Z,4.80
2023-03-27T04:37:56.383Z,4.87
2023-03-27T04:40:25.679Z,5.02
2023-03-27T04:42:56.116Z,5.03
2023-03-27T04:45:25.995Z,5.10
2023-03-27T04:47:54.654Z,5.00
2023-03-27T04:50:22.401Z,5.22
2023-03-27T04:52:51.890Z,5.33
2023-03-27T04:55:20.432Z,5.10
2023-03-27T04:57:48.306Z,5.10
2023-03-27T05:00:19.677Z,5.10
2023-03-27T05:02:52.776Z,5.14
2023-03-27T05:05:21.141Z,5.25
2023-03-27T05:07:50.121Z,5.14
2023-03-27T05:10:21.553Z,5.07
2023-03-27T05:12:51.869Z,5.27
2023-03-27T05:15:19.359Z,5.46
2023-03-27T05:17:53.393Z,5.45
2023-03-27T05:20:22.356Z,5.46
2023-03-27T05:22:53.748Z,5.54
2023-03-27T05:25:22.928Z,5.52
2023-03-27T05:27:52.296Z,5.59
2023-03-27T05:30:22.338Z,5.78
2023-03-27T05:32:52.598Z,5.99
2023-03-27T05:35:24.217Z,6.13
2023-03-27T05:37:53.968Z,6.38
2023-03-27T05:40:27.873Z,6.44
2023-03-27T05:42:56.681Z,6.35
2023-03-27T05:45:26.963Z,6.45
2023-03-27T05:47:56.880Z,6.48
2023-03-27T05:50:28.547Z,6.53
2023-03-27T05:52:58.375Z,6.80
2023-03-27T05:55:28.485Z,6.90
2023-03-27T05:57:56.334Z,6.87
2023-03-27T06:00:26.549Z,7.02
2023-03-27T06:02:57.289Z,7.25
2023-03-27T06:05:29.949Z,7.42
2023-03-27T06:08:00.561Z,7.56
2023-03-27T06:10:30.136Z,7.65
2023-03-27T06:13:10.132Z,7.66
2023-03-27T06:15:40.823Z,7.55
2023-03-27T06:18:11.173Z,7.57
2023-03-27T06:20:40.359Z,7.51
2023-03-27T06:23:09.468Z,7.69
2023-03-27T06:25:39.439Z,8.04
2023-03-27T06:28:09.711Z,8.13
2023-03-27T06:30:39.216Z,8.00
2023-03-27T06:33:10.232Z,8.07
2023-03-27T06:35:39.782Z,8.30
2023-03-27T06:38:08.356Z,8.46
2023-03-27T06:40:38.762Z,8.58
2023-03-27T06:43:08.826Z,8.48
2023-03-27T06:45:41.704Z,8.60
2023-03-27T06:48:17.685Z,8.67
2023-03-27T06:50:51.140Z,8.74
2023-03-27T06:55:51.479Z,9.19
2023-03-27T06:58:19.669Z,9.25
2023-03-27T07:00:49.036Z,9.61
2023-03-27T07:03:25.948Z,9.54
2023-03-27T07:05:54.925Z,9.62
2023-03-27T07:08:26.850Z,9.70
2023-03-27T07:13:25.773Z,9.60
2023-03-27T07:15:53.357Z,9.59
2023-03-27T07:18:22.826Z,9.63
2023-03-27T07:20:51.023Z,9.49
2023-03-27T07:23:18.778Z,9.67
2023-03-27T07:25:50.200Z,9.92
2023-03-27T07:28:21.128Z,10.27
2023-03-27T07:30:48.798Z,10.73
2023-03-27T07:33:20.804Z,10.58
2023-03-27T07:35:48.884Z,10.90
2023-03-27T07:38:18.666Z,10.72
2023-03-27T07:40:50.145Z,10.47
2023-03-27T07:43:19.740Z,10.54
2023-03-27T07:45:47.451Z,10.64
2023-03-27T07:48:19.157Z,10.87
2023-03-27T07:50:48.934Z,11.06
2023-03-27T07:53:33.828Z,11.17
2023-03-27T07:56:04.052Z,11.28
2023-03-27T07:58:32.258Z,11.18
2023-03-27T08:01:02.592Z,11.33
2023-03-27T08:03:32.077Z,11.32
2023-03-27T08:06:00.771Z,11.36
2023-03-27T08:08:29.615Z,11.47
2023-03-27T08:10:58.711Z,11.54
2023-03-27T08:13:26.475Z,11.54
2023-03-27T08:16:06.621Z,11.64
2023-03-27T08:18:35.033Z,11.40
2023-03-27T08:21:04.012Z,11.23
2023-03-27T08:23:33.933Z,11.14
2023-03-27T08:26:05.735Z,11.15
2023-03-27T08:28:36.611Z,10.97
2023-03-27T08:31:16.298Z,10.95
2023-03-27T08:33:43.960Z,11.04
2023-03-27T08:36:14.445Z,11.13
2023-03-27T08:38:43.425Z,10.93
2023-03-27T08:41:30.856Z,11.19
2023-03-27T08:44:01.554Z,11.19
2023-03-27T08:46:37.883Z,11.21
2023-03-27T08:49:17.726Z,10.89
2023-03-27T08:51:57.017Z,10.88
2023-03-27T08:54:29.199Z,10.99
2023-03-27T08:56:57.433Z,10.83
2023-03-27T08:59:28.459Z,10.94
2023-03-27T09:02:15.888Z,11.00
2023-03-27T09:04:43.567Z,10.97
2023-03-27T09:07:20.067Z,10.90
2023-03-27T09:10:25.144Z,10.75
2023-03-27T09:13:18.392Z,10.71
2023-03-27T09:15:52.652Z,10.69
2023-03-27T09:18:27.654Z,10.74
2023-03-27T09:21:06.598Z,10.74
2023-03-27T09:23:41.723Z,10.72
2023-03-27T09:26:13.184Z,10.88
2023-03-27T09:28:42.896Z,10.95
2023-03-27T09:31:29.379Z,11.00
2023-03-27T09:34:01.253Z,11.13
2023-03-27T09:36:29.169Z,11.18
2023-03-27T09:39:06.002Z,11.33
2023-03-27T09:41:42.938Z,11.21
2023-03-27T09:44:21.101Z,11.37
2023-03-27T09:46:57.082Z,11.33
2023-03-27T09:49:26.208Z,11.36
2023-03-27T09:51:55.537Z,11.39
2023-03-27T09:54:29.153Z,11.28
2023-03-27T09:57:06.980Z,11.38
2023-03-27T09:59:38.058Z,11.52
2023-03-27T10:02:23.134Z,11.56
2023-03-27T10:05:12.194Z,11.82
2023-03-27T10:07:42.060Z,12.09
2023-03-27T10:10:15.895Z,12.18
2023-03-27T10:12:56.202Z,12.18
2023-03-27T10:15:39.014Z,12.12
2023-03-27T10:18:31.943Z,12.11
2023-03-27T10:21:09.898Z,11.90
2023-03-27T10:23:44.284Z,12.02
2023-03-27T10:26:17.145Z,11.87
2023-03-27T10:28:49.711Z,11.87
2023-03-27T10:31:31.031Z,11.94
2023-03-27T10:34:06.168Z,11.93
2023-03-27T10:36:47.460Z,12.01
2023-03-27T10:39:15.593Z,12.18
2023-03-27T10:41:48.013Z,12.17
2023-03-27T10:44:19.225Z,12.03
2023-03-27T10:46:49.211Z,12.02
2023-03-27T10:49:49.277Z,12.20
2023-03-27T10:52:25.916Z,12.36
2023-03-27T10:55:05.405Z,12.60
2023-03-27T10:57:34.739Z,12.82
2023-03-27T11:00:11.927Z,12.92
2023-03-27T11:02:46.103Z,12.84
2023-03-27T11:05:20.968Z,12.78
2023-03-27T11:07:57.797Z,13.14
2023-03-27T11:10:32.272Z,12.95
2023-03-27T11:13:33.578Z,13.02
2023-03-27T11:16:12.897Z,12.96
2023-03-27T11:19:16.279Z,12.99
2023-03-27T11:21:53.594Z,13.07
2023-03-27T11:24:47.906Z,13.21
2023-03-27T11:27:41.468Z,13.14
2023-03-27T11:30:16.475Z,12.94
2023-03-27T11:32:53.791Z,12.66
2023-03-27T11:35:27.908Z,12.41
2023-03-27T11:38:06.420Z,12.18
2023-03-27T11:40:45.812Z,11.97
2023-03-27T11:43:14.892Z,11.84
2023-03-27T11:46:21.199Z,11.42
2023-03-27T11:49:30.972Z,11.27
2023-03-27T11:52:02.104Z,11.04
2023-03-27T11:54:41.665Z,10.89
2023-03-27T11:57:27.723Z,10.97
2023-03-27T12:00:19.785Z,11.08
2023-03-27T12:03:12.603Z,11.07
2023-03-27T12:05:56.269Z,10.73
2023-03-27T12:08:36.274Z,10.53
2023-03-27T12:11:06.383Z,10.22
2023-03-27T12:14:17.496Z,10.28
2023-03-27T12:17:16.846Z,10.36
2023-03-27T12:20:16.187Z,10.26
2023-03-27T12:22:56.763Z,10.30
2023-03-27T12:25:43.632Z,10.17
2023-03-27T12:28:47.000Z,10.22
2023-03-27T12:31:34.373Z,10.18
2023-03-27T12:34:24.828Z,9.91
2023-03-27T12:36:53.805Z,9.90
2023-03-27T12:39:25.188Z,9.77
2023-03-27T12:41:53.688Z,9.62
2023-03-27T12:44:32.138Z,9.75
2023-03-27T12:47:09.058Z,9.16
2023-03-27T12:49:47.733Z,8.55
2023-03-27T12:52:19.433Z,8.37
2023-03-27T12:55:35.416Z,8.23
2023-03-27T12:58:06.267Z,8.35
2023-03-27T13:00:37.540Z,8.28
2023-03-27T13:03:36.535Z,8.42
2023-03-27T13:06:24.833Z,8.73
2023-03-27T13:09:10.002Z,8.83
2023-03-27T13:12:05.556Z,8.94
2023-03-27T13:15:11.747Z,8.96
2023-03-27T13:17:50.056Z,8.71
2023-03-27T13:21:00.981Z,8.30
2023-03-27T13:23:53.863Z,8.01
2023-03-27T13:26:31.138Z,7.85
2023-03-27T13:29:01.699Z,8.03
2023-03-27T13:31:46.286Z,8.09
2023-03-27T13:34:33.007Z,8.40
2023-03-27T13:37:09.863Z,8.46
2023-03-27T13:39:46.307Z,8.51
2023-03-27T13:42:18.245Z,8.53
2023-03-27T13:45:05.434Z,8.35
2023-03-27T13:47:36.556Z,8.49
2023-03-27T13:50:20.071Z,8.50
2023-03-27T13:52:53.659Z,8.74
2023-03-27T13:55:57.077Z,8.55
2023-03-27T13:58:36.026Z,8.43
2023-03-27T14:01:22.989Z,8.50
2023-03-27T14:04:18.869Z,8.44
2023-03-27T14:07:08.135Z,8.37
2023-03-27T14:09:47.546Z,8.49
2023-03-27T14:12:15.436Z,8.58
2023-03-27T14:14:47.885Z,8.68
2023-03-27T14:17:21.238Z,8.65
2023-03-27T14:20:11.688Z,8.79
2023-03-27T14:23:07.099Z,8.87
2023-03-27T14:25:39.859Z,8.86
2023-03-27T14:28:09.429Z,9.06
2023-03-27T14:30:47.753Z,9.12
2023-03-27T14:33:20.449Z,9.23
2023-03-27T14:36:03.574Z,9.52
2023-03-27T14:38:34.067Z,9.63
2023-03-27T14:41:17.637Z,9.22
2023-03-27T14:43:48.476Z,8.93
2023-03-27T14:46:19.242Z,9.47
2023-03-27T14:48:53.651Z,9.75
2023-03-27T14:51:34.014Z,10.25
2023-03-27T14:54:09.025Z,10.92
2023-03-27T14:56:46.031Z,11.53
2023-03-27T14:59:22.974Z,12.64
2023-03-27T15:01:54.678Z,13.52
2023-03-27T15:04:22.884Z,14.33
2023-03-27T15:06:56.178Z,15.31
2023-03-27T15:09:24.343Z,15.40
2023-03-27T15:11:57.011Z,15.01
2023-03-27T15:14:27.114Z,14.24
2023-03-27T15:17:20.209Z,14.21
2023-03-27T15:19:56.054Z,13.97
2023-03-27T15:22:36.955Z,13.75
2023-03-27T15:25:10.723Z,13.12
2023-03-27T15:27:42.760Z,12.64
2023-03-27T15:30:29.105Z,12.04
2023-03-27T15:33:02.017Z,11.49
2023-03-27T15:35:42.161Z,11.38
2023-03-27T15:38:14.296Z,11.38
2023-03-27T15:40:44.067Z,11.32
2023-03-27T15:43:15.012Z,11.04
2023-03-27T15:45:56.926Z,10.92
2023-03-27T15:48:38.183Z,10.80
2023-03-27T15:51:07.076Z,10.57
2023-03-27T15:53:40.652Z,10.53
2023-03-27T15:56:17.049Z,10.54
2023-03-27T15:59:00.136Z,10.47
2023-03-27T16:01:38.495Z,10.21
2023-03-27T16:04:40.489Z,10.22
2023-03-27T16:07:17.025Z,9.93
2023-03-27T16:09:50.039Z,9.73
2023-03-27T16:12:19.925Z,9.59
2023-03-27T16:14:47.534Z,9.36
2023-03-27T16:17:21.006Z,9.33
2023-03-27T16:19:52.268Z,9.51
2023-03-27T16:22:30.968Z,9.26
2023-03-27T16:25:00.524Z,8.99
2023-03-27T16:27:35.788Z,9.00
2023-03-27T16:30:09.495Z,9.03
2023-03-27T16:32:37.136Z,9.03
2023-03-27T16:35:05.199Z,9.16
2023-03-27T16:37:32.625Z,8.99
2023-03-27T16:40:00.000Z,9.08
2023-03-27T16:42:27.639Z,8.95
2023-03-27T16:44:55.102Z,8.74
2023-03-27T16:47:23.642Z,8.76
2023-03-27T16:50:08.132Z,8.77
2023-03-27T16:52:38.131Z,8.79
2023-03-27T16:55:07.523Z,8.48
2023-03-27T16:57:36.539Z,8.41
2023-03-27T17:00:05.556Z,8.37
2023-03-27T17:02:35.097Z,8.35
2023-03-27T17:05:07.161Z,8.39
2023-03-27T17:07:34.938Z,8.32
2023-03-27T17:10:03.600Z,8.13
2023-03-27T17:12:32.410Z,8.10
2023-03-27T17:15:00.016Z,8.18
2023-03-27T17:17:27.788Z,8.17
2023-03-27T17:19:55.264Z,8.01
2023-03-27T17:22:23.114Z,7.52
2023-03-27T17:24:56.724Z,7.65
2023-03-27T17:27:26.806Z,8.02
2023-03-27T17:29:56.348Z,7.71
2023-03-27T17:32:27.295Z,7.73
2023-03-27T17:34:55.481Z,7.70
2023-03-27T17:37:23.886Z,7.79
2023-03-27T17:39:51.575Z,7.75
2023-03-27T17:42:21.147Z,7.73
2023-03-27T17:44:48.912Z,7.79
2023-03-27T17:47:16.496Z,7.79
2023-03-27T17:49:45.325Z,7.97
2023-03-27T17:52:13.819Z,7.71
2023-03-27T17:54:41.814Z,7.53
2023-03-27T17:57:09.719Z,7.66
2023-03-27T17:59:38.680Z,7.68
2023-03-27T18:02:07.663Z,7.73
2023-03-27T18:04:36.598Z,7.80
2023-03-27T18:07:04.023Z,7.46
2023-03-27T18:09:32.662Z,7.53
2023-03-27T18:12:00.940Z,7.63
2023-03-27T18:14:28.350Z,7.46
2023-03-27T18:16:56.597Z,7.41
2023-03-27T18:19:25.911Z,7.47
2023-03-27T18:21:53.621Z,7.48
2023-03-27T18:24:21.339Z,7.45
2023-03-27T18:26:49.231Z,7.52
2023-03-27T18:29:16.764Z,7.37
2023-03-27T18:31:45.181Z,7.28
2023-03-27T18:34:13.256Z,7.09
2023-03-27T18:36:40.814Z,6.88
2023-03-27T18:39:08.518Z,6.94
2023-03-27T18:41:36.337Z,7.06
2023-03-27T18:44:03.778Z,7.07
2023-03-27T18:46:31.389Z,7.06
2023-03-27T18:48:59.763Z,7.17
2023-03-27T18:51:33.978Z,6.84
2023-03-27T18:54:01.980Z,6.48
2023-03-27T18:56:29.307Z,6.67
2023-03-27T18:58:56.917Z,6.74
2023-03-27T19:01:24.678Z,6.60
2023-03-27T19:03:52.071Z,6.39
2023-03-27T19:06:19.956Z,6.54
2023-03-27T19:08:47.696Z,6.48
2023-03-27T19:11:15.083Z,6.33
2023-03-27T19:13:53.642Z,6.20
2023-03-27T19:16:21.830Z,6.25
2023-03-27T19:18:50.057Z,6.19
2023-03-27T19:21:19.674Z,6.19
2023-03-27T19:23:48.080Z,6.18
2023-03-27T19:26:19.443Z,6.07
2023-03-27T19:28:49.911Z,5.96
2023-03-27T19:31:17.687Z,6.00
2023-03-27T19:33:45.992Z,5.94
2023-03-27T19:36:13.860Z,5.93
2023-03-27T19:38:41.386Z,5.80
2023-03-27T19:41:09.825Z,5.93
2023-03-27T19:43:38.084Z,5.90
2023-03-27T19:46:15.940Z,5.82
2023-03-27T19:48:45.751Z,5.79
2023-03-27T19:51:13.465Z,5.91
2023-03-27T19:53:43.606Z,6.06
2023-03-27T19:58:39.724Z,6.05
2023-03-27T20:01:10.117Z,5.92
2023-03-27T20:03:38.729Z,5.96
2023-03-27T20:06:13.301Z,5.90
2023-03-27T20:08:42.646Z,5.79
2023-03-27T20:11:13.492Z,5.61
2023-03-27T20:13:52.911Z,5.79
2023-03-27T20:16:27.656Z,5.77
2023-03-27T20:19:04.071Z,5.81
2023-03-27T20:21:35.318Z,5.84
2023-03-27T20:24:05.939Z,5.71
2023-03-27T20:26:39.476Z,5.78
2023-03-27T20:29:12.963Z,5.82
2023-03-27T20:31:41.071Z,5.87
2023-03-27T20:34:09.569Z,5.78
2023-03-27T20:36:39.327Z,5.64
2023-03-27T20:39:10.906Z,5.68
2023-03-27T20:41:39.290Z,5.52
2023-03-27T20:44:15.553Z,5.63
2023-03-27T20:46:52.218Z,5.55
2023-03-27T20:51:59.843Z,5.68
2023-03-27T20:54:27.610Z,5.51
2023-03-27T20:56:55.687Z,5.67
2023-03-27T20:59:23.163Z,5.58
2023-03-27T21:01:50.522Z,5.59
2023-03-27T21:04:18.095Z,5.48
2023-03-27T21:06:45.756Z,5.40
2023-03-27T21:09:16.244Z,5.29
2023-03-27T21:11:43.869Z,5.46
2023-03-27T21:14:11.403Z,5.30
2023-03-27T21:16:38.775Z,5.25
2023-03-27T21:19:06.641Z,5.15
2023-03-27T21:21:34.559Z,5.15
2023-03-27T21:24:02.091Z,5.11
2023-03-27T21:26:29.775Z,5.06
2023-03-27T21:28:57.215Z,5.14
2023-03-27T21:31:24.594Z,5.28
2023-03-27T21:33:52.432Z,5.29
2023-03-27T21:36:19.985Z,5.27
2023-03-27T21:38:47.788Z,5.42
2023-03-27T21:41:17.051Z,5.19
2023-03-27T21:43:44.904Z,5.06
2023-03-27T21:46:12.648Z,4.91
2023-03-27T21:48:40.997Z,4.88
2023-03-27T21:51:08.918Z,5.01
2023-03-27T21:53:36.874Z,5.03
2023-03-27T21:56:05.070Z,5.00
2023-03-27T21:58:32.503Z,5.20
2023-03-27T22:01:00.615Z,5.14
2023-03-27T22:03:28.638Z,5.24
2023-03-27T22:06:10.194Z,4.94
2023-03-27T22:08:40.399Z,4.93
2023-03-27T22:11:07.759Z,4.98
2023-03-27T22:13:38.958Z,4.85
2023-03-27T22:16:12.570Z,5.03
2023-03-27T22:18:40.671Z,4.87
2023-03-27T22:21:29.291Z,4.95
2023-03-27T22:23:58.354Z,4.81
2023-03-27T22:26:30.188Z,4.84
2023-03-27T22:28:58.751Z,4.98
2023-03-27T22:31:27.373Z,4.84
2023-03-27T22:33:55.074Z,4.97
2023-03-27T22:36:22.639Z,4.92
2023-03-27T22:38:50.551Z,4.83
2023-03-27T22:41:18.245Z,4.79
2023-03-27T22:43:48.812Z,4.55
2023-03-27T22:46:20.146Z,4.71
2023-03-27T22:48:47.886Z,4.58
2023-03-27T22:51:15.490Z,4.57
2023-03-27T22:53:43.324Z,4.43
2023-03-27T22:56:10.745Z,4.43
2023-03-27T22:58:38.024Z,4.25
2023-03-27T23:01:06.706Z,4.16
2023-03-27T23:03:34.277Z,4.08
2023-03-27T23:06:01.875Z,4.09
2023-03-27T23:08:30.181Z,4.16
2023-03-27T23:11:05.685Z,4.16
2023-03-27T23:13:34.926Z,4.08
2023-03-27T23:16:02.739Z,4.11
2023-03-27T23:18:30.873Z,3.96
2023-03-27T23:21:04.401Z,3.78
2023-03-27T23:23:33.655Z,3.75
2023-03-27T23:26:03.895Z,3.52
2023-03-27T23:28:34.811Z,3.45
2023-03-27T23:31:04.957Z,3.27
2023-03-27T23:33:38.473Z,3.01
2023-03-27T23:36:12.622Z,2.96
2023-03-27T23:38:41.537Z,2.95
2023-03-27T23:41:11.078Z,2.75
2023-03-27T23:43:38.749Z,2.54
2023-03-27T23:46:08.824Z,2.57
2023-03-27T23:48:38.109Z,2.55
2023-03-27T23:51:06.318Z,2.51
2023-03-27T23:53:34.316Z,2.30
2023-03-27T23:56:02.884Z,2.32
2023-03-27T23:58:32.732Z,2.37
